sensor_id;sensor_type;location;lat;lon;timestamp;P1;durP1;ratioP1;P2;durP2;ratioP2
15228;SDS011;7717;47.792;12.076;2022-11-18T00:00:48;3.93;;;3.43;;
15228;SDS011;7717;47.792;12.076;2022-11-18T00:03:14;4.67;;;4.10;;
15228;SDS011;7717;47.792;12.076;2022-11-18T00:05:39;4.50;;;3.40;;
15228;SDS011;7717;47.792;12.076;2022-11-18T00:08:05;6.03;;;3.43;;
15228;SDS011;7717;47.792;12.076;2022-11-18T00:10:30;3.60;;;2.20;;
15228;SDS011;7717;47.792;12.076;2022-11-18T00:12:56;3.57;;;2.77;;
15228;SDS011;7717;47.792;12.076;2022-11-18T00:15:43;2.93;;;2.63;;
15228;SDS011;7717;47.792;12.076;2022-11-18T00:18:08;5.43;;;2.77;;
15228;SDS011;7717;47.792;12.076;2022-11-18T00:20:34;2.93;;;2.40;;
15228;SDS011;7717;47.792;12.076;2022-11-18T00:22:59;3.20;;;2.53;;
15228;SDS011;7717;47.792;12.076;2022-11-18T00:25:25;3.90;;;2.70;;
15228;SDS011;7717;47.792;12.076;2022-11-18T00:27:50;3.47;;;3.10;;
15228;SDS011;7717;47.792;12.076;2022-11-18T00:30:16;3.37;;;2.97;;
15228;SDS011;7717;47.792;12.076;2022-11-18T00:32:41;2.90;;;2.67;;
15228;SDS011;7717;47.792;12.076;2022-11-18T00:35:07;2.83;;;2.63;;
15228;SDS011;7717;47.792;12.076;2022-11-18T00:37:32;5.13;;;3.60;;
15228;SDS011;7717;47.792;12.076;2022-11-18T00:39:58;5.40;;;3.17;;
15228;SDS011;7717;47.792;12.076;2022-11-18T00:42:23;4.07;;;3.10;;
15228;SDS011;7717;47.792;12.076;2022-11-18T00:45:07;3.83;;;2.90;;
15228;SDS011;7717;47.792;12.076;2022-11-18T00:47:33;2.43;;;2.23;;
15228;SDS011;7717;47.792;12.076;2022-11-18T00:49:58;2.63;;;2.07;;
15228;SDS011;7717;47.792;12.076;2022-11-18T00:52:24;3.93;;;2.60;;
15228;SDS011;7717;47.792;12.076;2022-11-18T00:54:49;3.03;;;2.70;;
15228;SDS011;7717;47.792;12.076;2022-11-18T00:57:14;3.50;;;2.50;;
15228;SDS011;7717;47.792;12.076;2022-11-18T00:59:40;4.23;;;2.57;;
15228;SDS011;7717;47.792;12.076;2022-11-18T01:02:05;6.17;;;3.20;;
15228;SDS011;7717;47.792;12.076;2022-11-18T01:04:30;2.80;;;2.57;;
15228;SDS011;7717;47.792;12.076;2022-11-18T01:06:56;2.93;;;2.63;;
15228;SDS011;7717;47.792;12.076;2022-11-18T01:09:22;3.17;;;2.60;;
15228;SDS011;7717;47.792;12.076;2022-11-18T01:11:47;2.90;;;2.60;;
15228;SDS011;7717;47.792;12.076;2022-11-18T01:14:31;2.77;;;2.30;;
15228;SDS011;7717;47.792;12.076;2022-11-18T01:16:56;3.87;;;2.53;;
15228;SDS011;7717;47.792;12.076;2022-11-18T01:19:23;3.60;;;2.70;;
15228;SDS011;7717;47.792;12.076;2022-11-18T01:21:49;4.00;;;3.30;;
15228;SDS011;7717;47.792;12.076;2022-11-18T01:24:15;8.33;;;3.47;;
15228;SDS011;7717;47.792;12.076;2022-11-18T01:26:40;4.57;;;3.30;;
15228;SDS011;7717;47.792;12.076;2022-11-18T01:29:06;4.50;;;3.37;;
15228;SDS011;7717;47.792;12.076;2022-11-18T01:31:31;3.70;;;3.07;;
15228;SDS011;7717;47.792;12.076;2022-11-18T01:33:57;3.53;;;3.23;;
15228;SDS011;7717;47.792;12.076;2022-11-18T01:36:23;3.93;;;3.00;;
15228;SDS011;7717;47.792;12.076;2022-11-18T01:38:51;5.07;;;3.20;;
15228;SDS011;7717;47.792;12.076;2022-11-18T01:41:18;4.37;;;3.40;;
15228;SDS011;7717;47.792;12.076;2022-11-18T01:46:18;3.97;;;3.37;;
15228;SDS011;7717;47.792;12.076;2022-11-18T01:48:45;3.23;;;2.93;;
15228;SDS011;7717;47.792;12.076;2022-11-18T01:51:18;3.60;;;2.70;;
15228;SDS011;7717;47.792;12.076;2022-11-18T01:53:50;5.50;;;2.83;;
15228;SDS011;7717;47.792;12.076;2022-11-18T01:56:25;3.57;;;3.10;;
15228;SDS011;7717;47.792;12.076;2022-11-18T01:59:00;3.50;;;3.20;;
15228;SDS011;7717;47.792;12.076;2022-11-18T02:01:30;3.47;;;3.17;;
15228;SDS011;7717;47.792;12.076;2022-11-18T02:03:56;6.07;;;3.30;;
15228;SDS011;7717;47.792;12.076;2022-11-18T02:06:22;4.80;;;3.57;;
15228;SDS011;7717;47.792;12.076;2022-11-18T02:08:48;3.77;;;3.33;;
15228;SDS011;7717;47.792;12.076;2022-11-18T02:11:14;3.47;;;3.17;;
15228;SDS011;7717;47.792;12.076;2022-11-18T02:14:03;5.13;;;3.90;;
15228;SDS011;7717;47.792;12.076;2022-11-18T02:16:45;4.03;;;3.33;;
15228;SDS011;7717;47.792;12.076;2022-11-18T02:22:18;4.10;;;3.70;;
15228;SDS011;7717;47.792;12.076;2022-11-18T02:24:55;3.37;;;3.07;;
15228;SDS011;7717;47.792;12.076;2022-11-18T02:30:31;5.47;;;3.30;;
15228;SDS011;7717;47.792;12.076;2022-11-18T02:33:07;4.20;;;3.80;;
15228;SDS011;7717;47.792;12.076;2022-11-18T02:35:51;3.93;;;3.53;;
15228;SDS011;7717;47.792;12.076;2022-11-18T02:38:23;4.93;;;3.77;;
15228;SDS011;7717;47.792;12.076;2022-11-18T02:40:55;4.00;;;3.60;;
15228;SDS011;7717;47.792;12.076;2022-11-18T02:43:27;4.27;;;3.87;;
15228;SDS011;7717;47.792;12.076;2022-11-18T02:46:07;3.60;;;3.27;;
15228;SDS011;7717;47.792;12.076;2022-11-18T02:48:36;4.60;;;3.70;;
15228;SDS011;7717;47.792;12.076;2022-11-18T02:51:06;3.67;;;3.30;;
15228;SDS011;7717;47.792;12.076;2022-11-18T02:53:34;4.23;;;3.30;;
15228;SDS011;7717;47.792;12.076;2022-11-18T02:56:02;3.43;;;3.13;;
15228;SDS011;7717;47.792;12.076;2022-11-18T02:58:28;3.93;;;3.60;;
15228;SDS011;7717;47.792;12.076;2022-11-18T03:01:00;3.67;;;3.37;;
15228;SDS011;7717;47.792;12.076;2022-11-18T03:03:34;4.60;;;3.43;;
15228;SDS011;7717;47.792;12.076;2022-11-18T03:08:30;3.70;;;3.40;;
15228;SDS011;7717;47.792;12.076;2022-11-18T03:13:44;4.60;;;3.43;;
15228;SDS011;7717;47.792;12.076;2022-11-18T03:16:25;4.83;;;3.67;;
15228;SDS011;7717;47.792;12.076;2022-11-18T03:21:43;3.33;;;3.10;;
15228;SDS011;7717;47.792;12.076;2022-11-18T03:26:42;3.23;;;3.00;;
15228;SDS011;7717;47.792;12.076;2022-11-18T03:31:47;2.83;;;2.63;;
15228;SDS011;7717;47.792;12.076;2022-11-18T03:37:02;3.80;;;3.40;;
15228;SDS011;7717;47.792;12.076;2022-11-18T03:39:31;3.40;;;3.10;;
15228;SDS011;7717;47.792;12.076;2022-11-18T03:42:05;3.70;;;3.20;;
15228;SDS011;7717;47.792;12.076;2022-11-18T03:44:35;6.47;;;5.33;;
15228;SDS011;7717;47.792;12.076;2022-11-18T03:47:05;3.30;;;3.03;;
15228;SDS011;7717;47.792;12.076;2022-11-18T03:49:39;3.60;;;3.30;;
15228;SDS011;7717;47.792;12.076;2022-11-18T03:52:13;3.87;;;3.27;;
15228;SDS011;7717;47.792;12.076;2022-11-18T03:54:43;4.40;;;3.50;;
15228;SDS011;7717;47.792;12.076;2022-11-18T03:57:15;3.57;;;3.27;;
15228;SDS011;7717;47.792;12.076;2022-11-18T04:02:26;3.43;;;3.13;;
15228;SDS011;7717;47.792;12.076;2022-11-18T04:04:54;4.73;;;2.90;;
15228;SDS011;7717;47.792;12.076;2022-11-18T04:12:56;3.57;;;3.00;;
15228;SDS011;7717;47.792;12.076;2022-11-18T04:15:27;3.23;;;3.03;;
15228;SDS011;7717;47.792;12.076;2022-11-18T04:17:55;4.50;;;3.03;;
15228;SDS011;7717;47.792;12.076;2022-11-18T04:20:21;4.53;;;3.90;;
15228;SDS011;7717;47.792;12.076;2022-11-18T04:22:47;3.67;;;3.30;;
15228;SDS011;7717;47.792;12.076;2022-11-18T04:25:13;3.97;;;3.50;;
15228;SDS011;7717;47.792;12.076;2022-11-18T04:27:38;3.60;;;3.17;;
15228;SDS011;7717;47.792;12.076;2022-11-18T04:30:04;3.40;;;3.10;;
15228;SDS011;7717;47.792;12.076;2022-11-18T04:32:31;6.33;;;4.57;;
15228;SDS011;7717;47.792;12.076;2022-11-18T04:34:57;6.07;;;3.40;;
15228;SDS011;7717;47.792;12.076;2022-11-18T04:37:23;3.87;;;3.57;;
15228;SDS011;7717;47.792;12.076;2022-11-18T04:39:49;4.23;;;3.73;;
15228;SDS011;7717;47.792;12.076;2022-11-18T04:42:15;7.00;;;3.83;;
15228;SDS011;7717;47.792;12.076;2022-11-18T04:44:40;3.13;;;2.80;;
15228;SDS011;7717;47.792;12.076;2022-11-18T04:47:06;3.00;;;2.70;;
15228;SDS011;7717;47.792;12.076;2022-11-18T04:49:32;2.83;;;2.60;;
15228;SDS011;7717;47.792;12.076;2022-11-18T04:51:58;2.63;;;1.97;;
15228;SDS011;7717;47.792;12.076;2022-11-18T04:54:25;1.67;;;1.27;;
15228;SDS011;7717;47.792;12.076;2022-11-18T04:56:51;1.53;;;1.43;;
15228;SDS011;7717;47.792;12.076;2022-11-18T04:59:18;2.10;;;1.30;;
15228;SDS011;7717;47.792;12.076;2022-11-18T05:01:46;2.03;;;1.83;;
15228;SDS011;7717;47.792;12.076;2022-11-18T05:04:13;1.20;;;0.93;;
15228;SDS011;7717;47.792;12.076;2022-11-18T05:06:40;0.60;;;0.60;;
15228;SDS011;7717;47.792;12.076;2022-11-18T05:09:05;0.77;;;0.50;;
15228;SDS011;7717;47.792;12.076;2022-11-18T05:11:31;0.30;;;0.30;;
15228;SDS011;7717;47.792;12.076;2022-11-18T05:14:15;0.70;;;0.20;;
15228;SDS011;7717;47.792;12.076;2022-11-18T05:16:41;0.40;;;0.40;;
15228;SDS011;7717;47.792;12.076;2022-11-18T05:19:07;0.33;;;0.30;;
15228;SDS011;7717;47.792;12.076;2022-11-18T05:21:32;0.30;;;0.30;;
15228;SDS011;7717;47.792;12.076;2022-11-18T05:24:00;2.67;;;1.90;;
15228;SDS011;7717;47.792;12.076;2022-11-18T05:26:26;1.53;;;1.00;;
15228;SDS011;7717;47.792;12.076;2022-11-18T05:28:52;0.30;;;0.30;;
15228;SDS011;7717;47.792;12.076;2022-11-18T05:31:18;1.50;;;1.30;;
15228;SDS011;7717;47.792;12.076;2022-11-18T05:33:44;2.17;;;1.17;;
15228;SDS011;7717;47.792;12.076;2022-11-18T05:36:11;1.10;;;0.90;;
15228;SDS011;7717;47.792;12.076;2022-11-18T05:38:38;1.97;;;1.23;;
15228;SDS011;7717;47.792;12.076;2022-11-18T05:41:04;1.23;;;0.93;;
15228;SDS011;7717;47.792;12.076;2022-11-18T05:43:30;0.73;;;0.73;;
15228;SDS011;7717;47.792;12.076;2022-11-18T05:45:56;0.40;;;0.40;;
15228;SDS011;7717;47.792;12.076;2022-11-18T05:48:25;0.40;;;0.40;;
15228;SDS011;7717;47.792;12.076;2022-11-18T05:50:51;0.40;;;0.40;;
15228;SDS011;7717;47.792;12.076;2022-11-18T05:53:19;0.50;;;0.40;;
15228;SDS011;7717;47.792;12.076;2022-11-18T05:55:59;0.40;;;0.40;;
15228;SDS011;7717;47.792;12.076;2022-11-18T05:58:31;0.40;;;0.40;;
15228;SDS011;7717;47.792;12.076;2022-11-18T06:00:57;2.53;;;1.57;;
15228;SDS011;7717;47.792;12.076;2022-11-18T06:03:28;3.30;;;2.67;;
15228;SDS011;7717;47.792;12.076;2022-11-18T06:05:59;1.53;;;1.40;;
15228;SDS011;7717;47.792;12.076;2022-11-18T06:08:28;2.37;;;1.60;;
15228;SDS011;7717;47.792;12.076;2022-11-18T06:10:57;1.90;;;1.70;;
15228;SDS011;7717;47.792;12.076;2022-11-18T06:13:28;2.03;;;1.70;;
15228;SDS011;7717;47.792;12.076;2022-11-18T06:15:58;2.60;;;2.40;;
15228;SDS011;7717;47.792;12.076;2022-11-18T06:18:25;2.10;;;1.90;;
15228;SDS011;7717;47.792;12.076;2022-11-18T06:20:53;2.27;;;2.07;;
15228;SDS011;7717;47.792;12.076;2022-11-18T06:23:23;2.43;;;1.80;;
15228;SDS011;7717;47.792;12.076;2022-11-18T06:25:50;2.33;;;2.13;;
15228;SDS011;7717;47.792;12.076;2022-11-18T06:28:15;2.23;;;2.03;;
15228;SDS011;7717;47.792;12.076;2022-11-18T06:30:42;2.73;;;2.53;;
15228;SDS011;7717;47.792;12.076;2022-11-18T06:33:07;4.93;;;4.43;;
15228;SDS011;7717;47.792;12.076;2022-11-18T06:35:32;4.90;;;3.10;;
15228;SDS011;7717;47.792;12.076;2022-11-18T06:37:58;2.90;;;2.60;;
15228;SDS011;7717;47.792;12.076;2022-11-18T06:40:24;6.80;;;4.03;;
15228;SDS011;7717;47.792;12.076;2022-11-18T06:42:49;5.23;;;4.73;;
15228;SDS011;7717;47.792;12.076;2022-11-18T06:45:33;5.37;;;4.90;;
15228;SDS011;7717;47.792;12.076;2022-11-18T06:47:59;3.50;;;3.20;;
15228;SDS011;7717;47.792;12.076;2022-11-18T06:50:25;10.07;;;5.33;;
15228;SDS011;7717;47.792;12.076;2022-11-18T06:52:50;6.00;;;3.83;;
15228;SDS011;7717;47.792;12.076;2022-11-18T06:55:16;3.50;;;3.20;;
15228;SDS011;7717;47.792;12.076;2022-11-18T06:57:42;2.90;;;2.60;;
15228;SDS011;7717;47.792;12.076;2022-11-18T07:00:07;3.20;;;2.90;;
15228;SDS011;7717;47.792;12.076;2022-11-18T07:02:36;5.70;;;3.83;;
15228;SDS011;7717;47.792;12.076;2022-11-18T07:05:02;5.40;;;3.70;;
15228;SDS011;7717;47.792;12.076;2022-11-18T07:07:28;8.20;;;6.37;;
15228;SDS011;7717;47.792;12.076;2022-11-18T07:09:54;7.97;;;6.20;;
15228;SDS011;7717;47.792;12.076;2022-11-18T07:12:21;5.60;;;3.40;;
15228;SDS011;7717;47.792;12.076;2022-11-18T07:14:46;3.37;;;2.67;;
15228;SDS011;7717;47.792;12.076;2022-11-18T07:17:11;6.20;;;4.43;;
15228;SDS011;7717;47.792;12.076;2022-11-18T07:19:37;9.23;;;6.20;;
15228;SDS011;7717;47.792;12.076;2022-11-18T07:22:03;3.07;;;2.60;;
15228;SDS011;7717;47.792;12.076;2022-11-18T07:24:29;4.07;;;2.70;;
15228;SDS011;7717;47.792;12.076;2022-11-18T07:26:54;4.40;;;2.70;;
15228;SDS011;7717;47.792;12.076;2022-11-18T07:29:22;3.03;;;2.83;;
15228;SDS011;7717;47.792;12.076;2022-11-18T07:31:48;2.00;;;1.83;;
15228;SDS011;7717;47.792;12.076;2022-11-18T07:34:13;2.80;;;2.30;;
15228;SDS011;7717;47.792;12.076;2022-11-18T07:36:39;2.03;;;1.83;;
15228;SDS011;7717;47.792;12.076;2022-11-18T07:39:05;2.83;;;1.43;;
15228;SDS011;7717;47.792;12.076;2022-11-18T07:41:30;1.70;;;1.40;;
15228;SDS011;7717;47.792;12.076;2022-11-18T07:43:58;1.60;;;1.50;;
15228;SDS011;7717;47.792;12.076;2022-11-18T07:46:28;1.57;;;1.30;;
15228;SDS011;7717;47.792;12.076;2022-11-18T07:48:56;1.23;;;1.07;;
15228;SDS011;7717;47.792;12.076;2022-11-18T07:51:24;3.13;;;2.33;;
15228;SDS011;7717;47.792;12.076;2022-11-18T07:53:54;2.03;;;1.37;;
15228;SDS011;7717;47.792;12.076;2022-11-18T07:56:20;0.67;;;0.67;;
15228;SDS011;7717;47.792;12.076;2022-11-18T07:58:46;0.80;;;0.60;;
15228;SDS011;7717;47.792;12.076;2022-11-18T08:01:13;1.30;;;0.90;;
15228;SDS011;7717;47.792;12.076;2022-11-18T08:03:40;1.83;;;1.73;;
15228;SDS011;7717;47.792;12.076;2022-11-18T08:06:06;0.43;;;0.43;;
15228;SDS011;7717;47.792;12.076;2022-11-18T08:08:33;0.50;;;0.40;;
15228;SDS011;7717;47.792;12.076;2022-11-18T08:10:59;0.80;;;0.40;;
15228;SDS011;7717;47.792;12.076;2022-11-18T08:13:26;2.70;;;2.50;;
15228;SDS011;7717;47.792;12.076;2022-11-18T08:15:52;0.87;;;0.80;;
15228;SDS011;7717;47.792;12.076;2022-11-18T08:18:18;0.50;;;0.50;;
15228;SDS011;7717;47.792;12.076;2022-11-18T08:20:44;0.13;;;0.13;;
15228;SDS011;7717;47.792;12.076;2022-11-18T08:23:10;0.30;;;0.30;;
15228;SDS011;7717;47.792;12.076;2022-11-18T08:25:36;0.30;;;0.10;;
15228;SDS011;7717;47.792;12.076;2022-11-18T08:28:01;0.20;;;0.20;;
15228;SDS011;7717;47.792;12.076;2022-11-18T08:30:27;0.57;;;0.57;;
15228;SDS011;7717;47.792;12.076;2022-11-18T08:32:52;1.03;;;0.30;;
15228;SDS011;7717;47.792;12.076;2022-11-18T08:35:18;0.50;;;0.50;;
15228;SDS011;7717;47.792;12.076;2022-11-18T08:37:43;0.40;;;0.40;;
15228;SDS011;7717;47.792;12.076;2022-11-18T08:40:08;5.23;;;3.13;;
15228;SDS011;7717;47.792;12.076;2022-11-18T08:42:34;0.40;;;0.40;;
15228;SDS011;7717;47.792;12.076;2022-11-18T08:45:02;0.37;;;0.37;;
15228;SDS011;7717;47.792;12.076;2022-11-18T08:47:29;0.10;;;0.10;;
15228;SDS011;7717;47.792;12.076;2022-11-18T08:49:54;2.30;;;0.93;;
15228;SDS011;7717;47.792;12.076;2022-11-18T08:52:20;5.17;;;4.77;;
15228;SDS011;7717;47.792;12.076;2022-11-18T08:54:45;5.93;;;5.33;;
15228;SDS011;7717;47.792;12.076;2022-11-18T08:57:11;0.57;;;0.57;;
15228;SDS011;7717;47.792;12.076;2022-11-18T08:59:36;0.60;;;0.57;;
15228;SDS011;7717;47.792;12.076;2022-11-18T09:02:01;0.50;;;0.50;;
15228;SDS011;7717;47.792;12.076;2022-11-18T09:04:27;0.30;;;0.30;;
15228;SDS011;7717;47.792;12.076;2022-11-18T09:06:52;0.20;;;0.20;;
15228;SDS011;7717;47.792;12.076;2022-11-18T09:09:17;0.13;;;0.10;;
15228;SDS011;7717;47.792;12.076;2022-11-18T09:11:43;0.20;;;0.20;;
15228;SDS011;7717;47.792;12.076;2022-11-18T09:14:09;0.20;;;0.20;;
15228;SDS011;7717;47.792;12.076;2022-11-18T09:16:35;0.10;;;0.10;;
15228;SDS011;7717;47.792;12.076;2022-11-18T09:19:01;0.47;;;0.17;;
15228;SDS011;7717;47.792;12.076;2022-11-18T09:21:27;0.40;;;0.20;;
15228;SDS011;7717;47.792;12.076;2022-11-18T09:23:53;0.10;;;0.10;;
15228;SDS011;7717;47.792;12.076;2022-11-18T09:26:20;0.40;;;0.20;;
15228;SDS011;7717;47.792;12.076;2022-11-18T09:28:47;0.30;;;0.30;;
15228;SDS011;7717;47.792;12.076;2022-11-18T09:31:14;0.20;;;0.20;;
15228;SDS011;7717;47.792;12.076;2022-11-18T09:33:41;0.10;;;0.10;;
15228;SDS011;7717;47.792;12.076;2022-11-18T09:36:12;0.17;;;0.10;;
15228;SDS011;7717;47.792;12.076;2022-11-18T09:38:42;0.50;;;0.20;;
15228;SDS011;7717;47.792;12.076;2022-11-18T09:43:49;0.27;;;0.20;;
15228;SDS011;7717;47.792;12.076;2022-11-18T09:46:25;0.10;;;0.10;;
15228;SDS011;7717;47.792;12.076;2022-11-18T09:49:01;0.13;;;0.13;;
15228;SDS011;7717;47.792;12.076;2022-11-18T09:51:40;0.17;;;0.17;;
15228;SDS011;7717;47.792;12.076;2022-11-18T09:54:15;0.33;;;0.20;;
15228;SDS011;7717;47.792;12.076;2022-11-18T09:56:46;0.70;;;0.50;;
15228;SDS011;7717;47.792;12.076;2022-11-18T09:59:12;0.10;;;0.10;;
15228;SDS011;7717;47.792;12.076;2022-11-18T10:01:39;0.10;;;0.10;;
15228;SDS011;7717;47.792;12.076;2022-11-18T10:04:05;0.20;;;0.20;;
15228;SDS011;7717;47.792;12.076;2022-11-18T10:06:38;0.77;;;0.47;;
15228;SDS011;7717;47.792;12.076;2022-11-18T10:25:46;0.33;;;0.33;;
15228;SDS011;7717;47.792;12.076;2022-11-18T10:30:48;1.03;;;1.03;;
15228;SDS011;7717;47.792;12.076;2022-11-18T10:33:21;0.50;;;0.50;;
15228;SDS011;7717;47.792;12.076;2022-11-18T10:35:47;0.30;;;0.30;;
15228;SDS011;7717;47.792;12.076;2022-11-18T10:51:34;0.33;;;0.33;;
15228;SDS011;7717;47.792;12.076;2022-11-18T10:54:25;0.93;;;0.30;;
15228;SDS011;7717;47.792;12.076;2022-11-18T10:57:03;0.30;;;0.30;;
15228;SDS011;7717;47.792;12.076;2022-11-18T10:59:49;0.10;;;0.10;;
15228;SDS011;7717;47.792;12.076;2022-11-18T11:02:31;0.23;;;0.23;;
15228;SDS011;7717;47.792;12.076;2022-11-18T11:05:03;0.37;;;0.37;;
15228;SDS011;7717;47.792;12.076;2022-11-18T11:07:40;1.20;;;0.23;;
15228;SDS011;7717;47.792;12.076;2022-11-18T11:12:34;0.17;;;0.17;;
15228;SDS011;7717;47.792;12.076;2022-11-18T11:15:04;0.30;;;0.30;;
15228;SDS011;7717;47.792;12.076;2022-11-18T11:20:36;0.20;;;0.20;;
15228;SDS011;7717;47.792;12.076;2022-11-18T11:23:09;0.40;;;0.40;;
15228;SDS011;7717;47.792;12.076;2022-11-18T11:25:39;0.13;;;0.13;;
15228;SDS011;7717;47.792;12.076;2022-11-18T11:28:29;0.60;;;0.43;;
15228;SDS011;7717;47.792;12.076;2022-11-18T11:34:16;0.10;;;0.10;;
15228;SDS011;7717;47.792;12.076;2022-11-18T11:36:51;0.10;;;0.10;;
15228;SDS011;7717;47.792;12.076;2022-11-18T11:42:16;1.70;;;0.30;;
15228;SDS011;7717;47.792;12.076;2022-11-18T11:44:54;0.20;;;0.20;;
15228;SDS011;7717;47.792;12.076;2022-11-18T11:48:04;0.10;;;0.10;;
15228;SDS011;7717;47.792;12.076;2022-11-18T11:55:54;0.10;;;0.10;;
15228;SDS011;7717;47.792;12.076;2022-11-18T12:01:41;0.40;;;0.40;;
15228;SDS011;7717;47.792;12.076;2022-11-18T12:04:14;0.40;;;0.40;;
15228;SDS011;7717;47.792;12.076;2022-11-18T12:06:45;0.30;;;0.30;;
15228;SDS011;7717;47.792;12.076;2022-11-18T12:09:15;0.13;;;0.13;;
15228;SDS011;7717;47.792;12.076;2022-11-18T12:17:52;0.20;;;0.20;;
15228;SDS011;7717;47.792;12.076;2022-11-18T12:23:11;0.20;;;0.20;;
15228;SDS011;7717;47.792;12.076;2022-11-18T12:31:53;0.30;;;0.30;;
15228;SDS011;7717;47.792;12.076;2022-11-18T12:36:28;0.30;;;0.30;;
15228;SDS011;7717;47.792;12.076;2022-11-18T12:38:56;0.10;;;0.10;;
15228;SDS011;7717;47.792;12.076;2022-11-18T12:44:22;0.13;;;0.13;;
15228;SDS011;7717;47.792;12.076;2022-11-18T12:46:49;0.20;;;0.20;;
15228;SDS011;7717;47.792;12.076;2022-11-18T12:51:48;0.33;;;0.20;;
15228;SDS011;7717;47.792;12.076;2022-11-18T12:57:00;1.23;;;0.27;;
15228;SDS011;7717;47.792;12.076;2022-11-18T12:59:46;0.40;;;0.40;;
15228;SDS011;7717;47.792;12.076;2022-11-18T13:04:43;0.20;;;0.20;;
15228;SDS011;7717;47.792;12.076;2022-11-18T13:07:10;0.20;;;0.20;;
15228;SDS011;7717;47.792;12.076;2022-11-18T13:09:57;0.20;;;0.20;;
15228;SDS011;7717;47.792;12.076;2022-11-18T13:12:26;0.30;;;0.30;;
15228;SDS011;7717;47.792;12.076;2022-11-18T13:14:54;0.60;;;0.20;;
15228;SDS011;7717;47.792;12.076;2022-11-18T13:17:41;0.50;;;0.50;;
15228;SDS011;7717;47.792;12.076;2022-11-18T13:20:23;0.30;;;0.30;;
15228;SDS011;7717;47.792;12.076;2022-11-18T13:23:01;0.40;;;0.40;;
15228;SDS011;7717;47.792;12.076;2022-11-18T13:25:47;0.23;;;0.23;;
15228;SDS011;7717;47.792;12.076;2022-11-18T13:34:02;0.33;;;0.30;;
15228;SDS011;7717;47.792;12.076;2022-11-18T13:36:35;0.40;;;0.40;;
15228;SDS011;7717;47.792;12.076;2022-11-18T13:39:11;0.70;;;0.50;;
15228;SDS011;7717;47.792;12.076;2022-11-18T13:41:59;0.63;;;0.63;;
15228;SDS011;7717;47.792;12.076;2022-11-18T13:45:01;0.67;;;0.67;;
15228;SDS011;7717;47.792;12.076;2022-11-18T13:52:42;0.87;;;0.87;;
15228;SDS011;7717;47.792;12.076;2022-11-18T13:55:19;0.67;;;0.67;;
15228;SDS011;7717;47.792;12.076;2022-11-18T13:58:04;1.60;;;0.93;;
15228;SDS011;7717;47.792;12.076;2022-11-18T14:00:35;0.90;;;0.57;;
15228;SDS011;7717;47.792;12.076;2022-11-18T14:03:03;0.90;;;0.90;;
15228;SDS011;7717;47.792;12.076;2022-11-18T14:05:41;3.20;;;2.40;;
15228;SDS011;7717;47.792;12.076;2022-11-18T14:11:00;2.20;;;1.60;;
15228;SDS011;7717;47.792;12.076;2022-11-18T14:13:27;0.97;;;0.97;;
15228;SDS011;7717;47.792;12.076;2022-11-18T14:15:58;0.80;;;0.80;;
15228;SDS011;7717;47.792;12.076;2022-11-18T14:18:32;3.77;;;1.20;;
15228;SDS011;7717;47.792;12.076;2022-11-18T14:20:59;0.63;;;0.63;;
15228;SDS011;7717;47.792;12.076;2022-11-18T14:23:34;1.37;;;1.23;;
15228;SDS011;7717;47.792;12.076;2022-11-18T14:26:02;1.50;;;1.40;;
15228;SDS011;7717;47.792;12.076;2022-11-18T14:31:02;1.73;;;1.63;;
15228;SDS011;7717;47.792;12.076;2022-11-18T14:36:48;2.17;;;2.00;;
15228;SDS011;7717;47.792;12.076;2022-11-18T14:39:20;0.90;;;0.90;;
15228;SDS011;7717;47.792;12.076;2022-11-18T14:41:50;1.30;;;1.20;;
15228;SDS011;7717;47.792;12.076;2022-11-18T14:44:17;0.93;;;0.93;;
15228;SDS011;7717;47.792;12.076;2022-11-18T14:49:23;1.27;;;0.90;;
15228;SDS011;7717;47.792;12.076;2022-11-18T14:51:51;2.53;;;1.43;;
15228;SDS011;7717;47.792;12.076;2022-11-18T14:54:18;0.10;;;0.10;;
15228;SDS011;7717;47.792;12.076;2022-11-18T14:56:46;0.10;;;0.10;;
15228;SDS011;7717;47.792;12.076;2022-11-18T14:59:14;0.10;;;0.10;;
15228;SDS011;7717;47.792;12.076;2022-11-18T15:01:42;0.33;;;0.33;;
15228;SDS011;7717;47.792;12.076;2022-11-18T15:04:09;0.10;;;0.10;;
15228;SDS011;7717;47.792;12.076;2022-11-18T15:06:34;0.10;;;0.10;;
15228;SDS011;7717;47.792;12.076;2022-11-18T15:09:01;0.10;;;0.10;;
15228;SDS011;7717;47.792;12.076;2022-11-18T15:11:27;0.10;;;0.10;;
15228;SDS011;7717;47.792;12.076;2022-11-18T15:13:52;0.10;;;0.10;;
15228;SDS011;7717;47.792;12.076;2022-11-18T15:16:25;0.10;;;0.10;;
15228;SDS011;7717;47.792;12.076;2022-11-18T15:18:53;0.10;;;0.10;;
15228;SDS011;7717;47.792;12.076;2022-11-18T15:21:20;0.10;;;0.10;;
15228;SDS011;7717;47.792;12.076;2022-11-18T15:23:46;0.10;;;0.10;;
15228;SDS011;7717;47.792;12.076;2022-11-18T15:28:46;0.10;;;0.10;;
15228;SDS011;7717;47.792;12.076;2022-11-18T15:31:13;0.10;;;0.10;;
15228;SDS011;7717;47.792;12.076;2022-11-18T15:33:41;0.10;;;0.10;;
15228;SDS011;7717;47.792;12.076;2022-11-18T15:36:11;0.10;;;0.10;;
15228;SDS011;7717;47.792;12.076;2022-11-18T15:38:38;0.10;;;0.10;;
15228;SDS011;7717;47.792;12.076;2022-11-18T15:41:04;0.10;;;0.10;;
15228;SDS011;7717;47.792;12.076;2022-11-18T15:43:30;0.10;;;0.10;;
15228;SDS011;7717;47.792;12.076;2022-11-18T15:45:56;0.10;;;0.10;;
15228;SDS011;7717;47.792;12.076;2022-11-18T15:48:24;0.10;;;0.10;;
15228;SDS011;7717;47.792;12.076;2022-11-18T15:50:49;0.10;;;0.10;;
15228;SDS011;7717;47.792;12.076;2022-11-18T15:53:15;0.10;;;0.10;;
15228;SDS011;7717;47.792;12.076;2022-11-18T15:55:40;0.10;;;0.10;;
15228;SDS011;7717;47.792;12.076;2022-11-18T15:58:06;0.10;;;0.10;;
15228;SDS011;7717;47.792;12.076;2022-11-18T16:00:31;0.10;;;0.10;;
15228;SDS011;7717;47.792;12.076;2022-11-18T16:02:57;0.10;;;0.10;;
15228;SDS011;7717;47.792;12.076;2022-11-18T16:05:22;0.10;;;0.10;;
15228;SDS011;7717;47.792;12.076;2022-11-18T16:07:47;0.23;;;0.23;;
15228;SDS011;7717;47.792;12.076;2022-11-18T16:10:13;0.10;;;0.10;;
15228;SDS011;7717;47.792;12.076;2022-11-18T16:12:57;0.10;;;0.10;;
15228;SDS011;7717;47.792;12.076;2022-11-18T16:15:22;0.10;;;0.10;;
15228;SDS011;7717;47.792;12.076;2022-11-18T16:18:06;0.10;;;0.10;;
15228;SDS011;7717;47.792;12.076;2022-11-18T16:20:32;0.10;;;0.10;;
15228;SDS011;7717;47.792;12.076;2022-11-18T16:22:57;0.10;;;0.10;;
15228;SDS011;7717;47.792;12.076;2022-11-18T16:25:23;0.10;;;0.10;;
15228;SDS011;7717;47.792;12.076;2022-11-18T16:27:49;0.10;;;0.10;;
15228;SDS011;7717;47.792;12.076;2022-11-18T16:30:14;0.10;;;0.10;;
15228;SDS011;7717;47.792;12.076;2022-11-18T16:32:58;0.10;;;0.10;;
15228;SDS011;7717;47.792;12.076;2022-11-18T16:35:25;0.10;;;0.10;;
15228;SDS011;7717;47.792;12.076;2022-11-18T16:37:51;0.10;;;0.10;;
15228;SDS011;7717;47.792;12.076;2022-11-18T16:40:17;0.10;;;0.10;;
15228;SDS011;7717;47.792;12.076;2022-11-18T16:42:42;0.10;;;0.10;;
15228;SDS011;7717;47.792;12.076;2022-11-18T16:45:08;0.10;;;0.10;;
15228;SDS011;7717;47.792;12.076;2022-11-18T16:47:34;0.10;;;0.10;;
15228;SDS011;7717;47.792;12.076;2022-11-18T16:50:01;0.10;;;0.10;;
15228;SDS011;7717;47.792;12.076;2022-11-18T16:52:26;0.10;;;0.10;;
15228;SDS011;7717;47.792;12.076;2022-11-18T16:54:51;0.10;;;0.10;;
15228;SDS011;7717;47.792;12.076;2022-11-18T16:57:17;0.10;;;0.10;;
15228;SDS011;7717;47.792;12.076;2022-11-18T16:59:42;0.10;;;0.10;;
15228;SDS011;7717;47.792;12.076;2022-11-18T17:02:09;0.10;;;0.10;;
15228;SDS011;7717;47.792;12.076;2022-11-18T17:04:38;0.10;;;0.10;;
15228;SDS011;7717;47.792;12.076;2022-11-18T17:07:03;0.10;;;0.10;;
15228;SDS011;7717;47.792;12.076;2022-11-18T17:09:30;0.10;;;0.10;;
15228;SDS011;7717;47.792;12.076;2022-11-18T17:11:56;0.10;;;0.10;;
15228;SDS011;7717;47.792;12.076;2022-11-18T17:14:27;0.10;;;0.10;;
15228;SDS011;7717;47.792;12.076;2022-11-18T17:16:53;0.10;;;0.10;;
15228;SDS011;7717;47.792;12.076;2022-11-18T17:19:19;0.10;;;0.10;;